CDS6 weather

Public forecast

Using degrees Celsius for public forecast. Weather courtesy of forecast.io.

Closest aviation weather report (METAR) to Parry Sound/Derbyshire Island Seaplane Base

Closest report is Muskoka Airport, 39.6 nm (73.3 km) ESE. Retrieved 2020/08/13 14:00 UTC (36 minutes ago):

CYQA 131400Z AUTO VRB02KT 9SM FEW210 24/17 A3019 RMK SLP225 DENSITY ALT 1800FT

Closest aviation forecast (TAF) to Parry Sound/Derbyshire Island Seaplane Base

Closest forecast is Muskoka Airport, 39.6 nm (73.3 km) ESE. Retrieved 2020/08/13 14:39 UTC (0 seconds ago):

TAF CYQA 131338Z 1314/1402 VRB03KT P6SM SKC FM131800 12008KT P6SM BKN180 RMK FCST BASED ON AUTO OBS NXT FCST BY 132000Z